Terminal Aerodrome Forecast
Issued by NWS

Home | Current Version | Previous Version | Text Only | Print | Product List | Glossary On
Versions: 1 2 3 4 5 6 7 8 9 10 11 12 13 14 15 16 17 18 19 20
000
FTUS44 KSJT 180520
TAFSOA
TAF
KSOA 180520Z 1806/1906 00000KT P6SM BKN250
     FM180900 16003KT 5SM BR OVC010
     FM181100 14003KT 1/2SM FG OVC005
     FM181600 11002KT 3SM BR OVC005
     FM181700 18004KT P6SM BKN020 OVC250
     FM190300 14002KT 4SM BR OVC050=

USA.gov is the U.S. government's official web portal to all federal, state and local government web resources and services.